createdAt,value
2023-04-30T00:03:20.141Z,7.77
2023-04-30T00:08:23.073Z,7.74
2023-04-30T00:13:25.868Z,7.73
2023-04-30T00:18:30.008Z,7.52
2023-04-30T00:23:32.717Z,7.38
2023-04-30T00:28:35.429Z,7.26
2023-04-30T00:33:39.502Z,7.25
2023-04-30T00:38:42.281Z,7.24
2023-04-30T00:43:46.817Z,7.13
2023-04-30T00:48:51.128Z,7.15
2023-04-30T00:53:53.918Z,7.12
2023-04-30T00:58:57.832Z,6.99
2023-04-30T01:04:02.106Z,6.96
2023-04-30T01:09:05.006Z,6.89
2023-04-30T01:14:11.873Z,6.90
2023-04-30T01:19:25.761Z,6.90
2023-04-30T01:24:50.056Z,6.77
2023-04-30T01:29:56.200Z,6.68
2023-04-30T01:35:02.397Z,6.66
2023-04-30T01:40:19.409Z,6.60
2023-04-30T01:45:34.337Z,6.45
2023-04-30T01:50:44.788Z,6.55
2023-04-30T01:55:51.935Z,6.46
2023-04-30T02:00:56.078Z,6.46
2023-04-30T02:05:59.079Z,6.26
2023-04-30T02:11:01.867Z,6.46
2023-04-30T02:16:06.824Z,6.32
2023-04-30T02:21:10.088Z,6.42
2023-04-30T02:26:12.860Z,6.18
2023-04-30T02:31:17.016Z,6.20
2023-04-30T02:36:21.717Z,5.77
2023-04-30T02:41:24.418Z,5.67
2023-04-30T02:46:28.515Z,5.70
2023-04-30T02:51:32.597Z,5.40
2023-04-30T02:56:35.610Z,5.63
2023-04-30T03:01:40.131Z,5.80
2023-04-30T03:06:43.080Z,5.62
2023-04-30T03:11:47.042Z,5.59
2023-04-30T03:16:51.108Z,5.33
2023-04-30T03:21:53.840Z,5.71
2023-04-30T03:26:56.727Z,5.66
2023-04-30T03:32:00.936Z,5.72
2023-04-30T03:37:03.857Z,5.87
2023-04-30T03:42:06.590Z,6.02
2023-04-30T03:47:10.817Z,5.99
2023-04-30T03:52:13.639Z,6.08
2023-04-30T03:57:16.428Z,6.15
2023-04-30T04:02:21.452Z,6.42
2023-04-30T04:07:24.263Z,6.10
2023-04-30T04:12:26.948Z,6.11
2023-04-30T04:17:31.113Z,6.20
2023-04-30T04:22:33.864Z,6.02
2023-04-30T04:27:36.929Z,6.18
2023-04-30T04:32:46.545Z,6.41
2023-04-30T04:37:49.417Z,6.22
2023-04-30T04:42:52.380Z,6.48
2023-04-30T04:47:56.533Z,6.59
2023-04-30T04:52:59.400Z,6.75
2023-04-30T04:58:02.109Z,6.78
2023-04-30T05:03:06.303Z,6.90
2023-04-30T05:08:09.057Z,6.92
2023-04-30T05:13:12.000Z,7.09
2023-04-30T05:18:16.244Z,7.18
2023-04-30T05:23:18.973Z,7.33
2023-04-30T05:28:21.726Z,7.35
2023-04-30T05:33:26.094Z,7.47
2023-04-30T05:38:28.937Z,7.60
2023-04-30T05:43:31.700Z,7.32
2023-04-30T05:48:35.743Z,7.48
2023-04-30T05:53:38.498Z,7.68
2023-04-30T05:58:41.264Z,7.61
2023-04-30T06:03:45.327Z,7.88
2023-04-30T06:08:48.044Z,8.11
2023-04-30T06:13:50.948Z,8.14
2023-04-30T06:18:55.050Z,8.12
2023-04-30T06:23:57.791Z,8.29
2023-04-30T06:29:00.552Z,8.31
2023-04-30T06:34:04.617Z,8.60
2023-04-30T06:39:07.349Z,8.79
2023-04-30T06:44:10.463Z,8.96
2023-04-30T06:49:14.611Z,8.95
2023-04-30T06:54:17.329Z,9.07
2023-04-30T06:59:20.110Z,10.15
2023-04-30T07:04:25.349Z,9.94
2023-04-30T07:09:28.879Z,10.31
2023-04-30T07:14:31.610Z,10.31
2023-04-30T07:19:35.609Z,10.15
2023-04-30T07:24:38.309Z,10.57
2023-04-30T07:29:41.114Z,10.68
2023-04-30T07:34:45.184Z,10.42
2023-04-30T07:39:47.873Z,10.92
2023-04-30T07:44:50.802Z,10.88
2023-04-30T07:49:55.128Z,10.19
2023-04-30T07:54:58.054Z,10.84
2023-04-30T08:00:00.991Z,10.69
2023-04-30T08:05:05.869Z,10.98
2023-04-30T08:10:09.484Z,11.04
2023-04-30T08:15:12.343Z,11.02
2023-04-30T08:20:16.949Z,11.15
2023-04-30T08:25:19.719Z,11.39
2023-04-30T08:30:22.442Z,11.57
2023-04-30T08:35:26.632Z,11.69
2023-04-30T08:40:49.542Z,11.47
2023-04-30T08:45:53.070Z,11.81
2023-04-30T08:50:57.202Z,11.98
2023-04-30T08:55:59.938Z,12.14
2023-04-30T09:01:03.622Z,12.30
2023-04-30T09:06:07.915Z,12.47
2023-04-30T09:11:26.976Z,12.20
2023-04-30T09:16:31.222Z,12.46
2023-04-30T09:21:36.551Z,12.31
2023-04-30T09:26:40.044Z,12.51
2023-04-30T09:31:44.896Z,12.58
2023-04-30T09:36:55.813Z,13.02
2023-04-30T09:42:08.581Z,13.08
2023-04-30T09:47:16.150Z,13.15
2023-04-30T09:52:20.856Z,13.11
2023-04-30T09:57:25.712Z,13.48
2023-04-30T10:02:28.661Z,13.57
2023-04-30T10:07:36.178Z,13.95
2023-04-30T10:12:42.218Z,14.08
2023-04-30T10:17:50.231Z,14.08
2023-04-30T10:22:54.978Z,13.32
2023-04-30T10:27:57.784Z,14.54
2023-04-30T10:33:10.759Z,14.52
2023-04-30T10:38:20.020Z,14.54
2023-04-30T10:43:25.089Z,14.90
2023-04-30T10:48:28.308Z,15.18
2023-04-30T10:53:33.939Z,15.05
2023-04-30T10:58:38.378Z,15.17
2023-04-30T11:03:43.172Z,14.19
2023-04-30T11:08:47.585Z,15.19
2023-04-30T11:14:02.099Z,15.98
2023-04-30T11:19:10.770Z,14.62
2023-04-30T11:24:15.712Z,16.28
2023-04-30T11:29:18.850Z,16.50
2023-04-30T11:34:21.607Z,15.63
2023-04-30T11:39:25.916Z,16.96
2023-04-30T11:44:29.086Z,16.85
2023-04-30T11:49:32.287Z,16.83
2023-04-30T11:54:37.302Z,16.78
2023-04-30T11:59:43.837Z,16.40
2023-04-30T12:04:48.441Z,16.67
2023-04-30T12:09:56.167Z,17.08
2023-04-30T12:14:59.383Z,17.56
2023-04-30T12:20:02.310Z,17.87
2023-04-30T12:25:10.484Z,18.20
2023-04-30T12:30:14.019Z,18.53
2023-04-30T12:35:18.863Z,16.90
2023-04-30T12:40:27.978Z,17.78
2023-04-30T12:45:47.554Z,18.38
2023-04-30T12:50:54.681Z,18.24
2023-04-30T12:56:13.725Z,17.86
2023-04-30T13:01:18.631Z,17.23
2023-04-30T13:06:22.646Z,17.69
2023-04-30T13:11:27.673Z,18.42
2023-04-30T13:16:31.091Z,18.24
2023-04-30T13:21:34.003Z,17.67
2023-04-30T13:26:38.568Z,17.71
2023-04-30T13:31:42.405Z,17.29
2023-04-30T13:36:46.666Z,17.02
2023-04-30T13:41:50.800Z,17.77
2023-04-30T13:46:53.566Z,18.08
2023-04-30T13:51:56.346Z,18.14
2023-04-30T13:57:00.643Z,18.28
2023-04-30T14:02:03.425Z,16.95
2023-04-30T14:07:06.117Z,17.26
2023-04-30T14:12:10.145Z,17.94
2023-04-30T14:17:12.839Z,18.03
2023-04-30T14:22:15.672Z,17.62
2023-04-30T14:27:19.760Z,18.31
2023-04-30T14:32:22.698Z,18.01
2023-04-30T14:37:25.613Z,17.64
2023-04-30T14:42:29.707Z,17.75
2023-04-30T14:47:32.490Z,18.00
2023-04-30T14:52:35.197Z,18.17
2023-04-30T14:57:39.294Z,18.05
2023-04-30T15:02:42.181Z,17.52
2023-04-30T15:07:44.944Z,17.84
2023-04-30T15:12:49.080Z,17.25
2023-04-30T15:17:51.846Z,17.23
2023-04-30T15:22:55.139Z,16.95
2023-04-30T15:27:59.526Z,16.91
2023-04-30T15:33:02.836Z,17.15
2023-04-30T15:38:05.614Z,17.33
2023-04-30T15:43:09.725Z,16.82
2023-04-30T15:48:12.428Z,17.51
2023-04-30T15:53:15.170Z,17.29
2023-04-30T15:58:19.329Z,17.28
2023-04-30T16:03:22.103Z,17.23
2023-04-30T16:08:24.983Z,16.85
2023-04-30T16:13:29.088Z,17.33
2023-04-30T16:18:31.817Z,17.14
2023-04-30T16:23:34.513Z,16.84
2023-04-30T16:28:38.619Z,17.22
2023-04-30T16:33:41.629Z,16.84
2023-04-30T16:38:46.300Z,16.98
2023-04-30T16:43:50.765Z,16.59
2023-04-30T16:48:53.840Z,16.39
2023-04-30T16:53:56.572Z,16.42
2023-04-30T16:59:00.667Z,16.30
2023-04-30T17:04:04.314Z,16.06
2023-04-30T17:09:07.031Z,16.15
2023-04-30T17:14:11.060Z,16.08
2023-04-30T17:19:13.785Z,16.00
2023-04-30T17:24:16.494Z,15.96
2023-04-30T17:29:20.971Z,15.72
2023-04-30T17:34:23.690Z,15.86
2023-04-30T17:39:26.665Z,15.34
2023-04-30T17:44:31.570Z,15.67
2023-04-30T17:49:34.287Z,15.54
2023-04-30T17:54:37.301Z,15.40
2023-04-30T17:59:41.330Z,15.40
2023-04-30T18:04:45.106Z,15.24
2023-04-30T18:09:47.882Z,15.27
2023-04-30T18:14:52.049Z,15.11
2023-04-30T18:19:55.167Z,15.02
2023-04-30T18:24:58.138Z,14.85
2023-04-30T18:30:03.075Z,14.69
2023-04-30T18:35:06.499Z,14.57
2023-04-30T18:40:10.389Z,14.43
2023-04-30T18:45:15.417Z,14.16
2023-04-30T18:50:19.503Z,14.14
2023-04-30T18:55:22.227Z,14.02
2023-04-30T19:00:27.349Z,13.95
2023-04-30T19:05:30.027Z,13.80
2023-04-30T19:10:34.773Z,13.60
2023-04-30T19:15:38.932Z,13.58
2023-04-30T19:20:42.795Z,13.57
2023-04-30T19:25:48.478Z,13.40
2023-04-30T19:30:54.194Z,13.34
2023-04-30T19:35:57.536Z,13.21
2023-04-30T19:41:01.112Z,13.13
2023-04-30T19:46:05.236Z,12.92
2023-04-30T19:51:09.145Z,12.83
2023-04-30T19:56:12.353Z,12.88
2023-04-30T20:01:16.529Z,12.78
2023-04-30T20:06:20.460Z,12.72
2023-04-30T20:11:23.338Z,12.63
2023-04-30T20:16:27.436Z,12.49
2023-04-30T20:21:30.348Z,12.49
2023-04-30T20:26:33.248Z,12.37
2023-04-30T20:31:37.724Z,12.38
2023-04-30T20:36:40.527Z,12.13
2023-04-30T20:41:43.753Z,12.21
2023-04-30T20:46:47.999Z,12.05
2023-04-30T20:51:50.752Z,12.09
2023-04-30T20:56:53.473Z,12.04
2023-04-30T21:01:57.789Z,11.81
2023-04-30T21:07:00.724Z,11.84
2023-04-30T21:12:05.039Z,11.74
2023-04-30T21:17:09.307Z,11.76
2023-04-30T21:22:12.061Z,11.60
2023-04-30T21:27:14.746Z,11.52
2023-04-30T21:32:18.818Z,11.48
2023-04-30T21:37:21.727Z,11.45
2023-04-30T21:42:24.521Z,11.24
2023-04-30T21:47:28.857Z,11.16
2023-04-30T21:52:31.678Z,10.96
2023-04-30T21:57:34.563Z,11.05
2023-04-30T22:02:38.789Z,10.97
2023-04-30T22:07:41.693Z,10.85
2023-04-30T22:12:47.465Z,10.85
2023-04-30T22:17:52.077Z,10.79
2023-04-30T22:22:55.779Z,10.59
2023-04-30T22:27:58.501Z,10.58
2023-04-30T22:33:02.776Z,10.49
2023-04-30T22:38:05.780Z,10.42
2023-04-30T22:43:09.873Z,10.33
2023-04-30T22:48:14.076Z,10.34
2023-04-30T22:53:17.060Z,10.13
2023-04-30T22:58:20.062Z,10.30
2023-04-30T23:03:24.285Z,10.09
2023-04-30T23:08:26.976Z,10.17
2023-04-30T23:13:29.674Z,10.09
2023-04-30T23:18:33.792Z,9.92
2023-04-30T23:23:36.518Z,9.98
2023-04-30T23:28:39.246Z,9.93
2023-04-30T23:33:43.350Z,9.97
2023-04-30T23:38:47.489Z,9.95
2023-04-30T23:43:50.996Z,9.84
2023-04-30T23:48:55.665Z,9.80
2023-04-30T23:53:58.548Z,9.69
2023-04-30T23:59:01.622Z,9.77
